Time;durP1;ratioP1;P1;durP2;ratioP2;P2;SDS_P1;SDS_P2;PMS_P1;PMS_P2;Temp;Humidity;BMP_temperature;BMP_pressure;BME280_temperature;BME280_humidity;BME280_pressure;Samples;Min_cycle;Max_cycle;Signal;HPM_P1;HPM_P2
2022/07/17 00:02:00;;;;;;;4.90;2.50;;;;;;;11.49;73.08;97839.18;1808645;79;25742;-78
2022/07/17 00:04:27;;;;;;;5.40;2.67;;;;;;;11.43;73.01;97839.19;1808811;79;25670;-77
2022/07/17 00:06:54;;;;;;;4.53;3.20;;;;;;;11.35;73.14;97840.75;1808783;79;27596;-77
2022/07/17 00:09:20;;;;;;;4.47;2.33;;;;;;;11.34;73.47;97839.91;1808615;79;25721;-77
2022/07/17 00:11:47;;;;;;;2.40;2.20;;;;;;;11.38;73.50;97843.02;1808616;79;25730;-79
2022/07/17 00:14:14;;;;;;;2.62;2.20;;;;;;;11.37;73.31;97838.64;1808904;79;26428;-77
2022/07/17 00:16:40;;;;;;;3.90;2.30;;;;;;;11.36;73.25;97843.22;1808721;79;25883;-79
2022/07/17 00:19:07;;;;;;;3.30;2.47;;;;;;;11.36;73.27;97845.09;1808741;79;28210;-77
2022/07/17 00:21:33;;;;;;;3.12;2.47;;;;;;;11.29;73.29;97839.69;1808575;78;25738;-79
2022/07/17 00:24:00;;;;;;;6.47;2.87;;;;;;;11.29;73.35;97838.85;1808657;79;25729;-77
2022/07/17 00:26:26;;;;;;;3.52;2.55;;;;;;;11.19;73.33;97838.73;1808621;79;25811;-77
2022/07/17 00:28:53;;;;;;;3.30;2.60;;;;;;;11.14;73.58;97843.91;1808706;79;25808;-77
2022/07/17 00:31:19;;;;;;;2.08;1.98;;;;;;;11.15;73.68;97837.47;1808752;79;28115;-77
2022/07/17 00:33:46;;;;;;;3.45;2.40;;;;;;;11.19;73.72;97852.25;1809072;79;25729;-79
2022/07/17 00:36:12;;;;;;;3.17;2.47;;;;;;;11.22;73.70;97843.42;1811576;79;25744;-77
2022/07/17 00:38:39;;;;;;;3.67;2.58;;;;;;;11.13;73.68;97845.45;1811751;79;26502;-79
2022/07/17 00:41:05;;;;;;;2.62;2.37;;;;;;;11.14;73.82;97847.12;1811895;79;25722;-77
2022/07/17 00:43:32;;;;;;;5.40;2.62;;;;;;;11.16;73.83;97847.77;1811859;79;27335;-77
2022/07/17 00:46:03;;;;;;;3.00;2.50;;;;;;;11.09;73.84;97846.41;1811460;79;25690;-77
2022/07/17 00:48:32;;;;;;;5.00;2.90;;;;;;;11.08;73.88;97848.80;1811860;79;25715;-78
2022/07/17 00:50:59;;;;;;;6.22;2.27;;;;;;;11.05;73.87;97853.24;1811847;79;26410;-78
2022/07/17 00:53:26;;;;;;;4.25;2.50;;;;;;;10.98;73.81;97852.41;1811843;79;25827;-77
2022/07/17 00:55:54;;;;;;;3.50;2.35;;;;;;;10.98;73.85;97864.56;1811733;79;28243;-77
2022/07/17 00:58:24;;;;;;;5.08;2.87;;;;;;;10.96;73.88;97859.87;1811739;79;25724;-77
2022/07/17 01:00:53;;;;;;;3.80;2.50;;;;;;;10.94;73.88;97861.10;1811734;79;25767;-77
2022/07/17 01:03:23;;;;;;;3.95;2.77;;;;;;;10.93;73.93;97865.67;1811848;79;25776;-79
2022/07/17 01:05:50;;;;;;;3.92;2.87;;;;;;;10.93;73.89;97861.62;1811885;79;25731;-77
2022/07/17 01:08:17;;;;;;;3.95;3.17;;;;;;;10.94;73.96;97868.69;1811788;79;27363;-78
2022/07/17 01:10:43;;;;;;;3.70;3.22;;;;;;;10.96;74.14;97871.19;1811791;79;25887;-79
2022/07/17 01:13:10;;;;;;;4.72;2.90;;;;;;;11.00;74.28;97871.08;1811898;79;25763;-79
2022/07/17 01:15:39;;;;;;;14.53;3.08;;;;;;;10.95;74.20;97868.17;1811838;79;26524;-77
2022/07/17 01:18:12;;;;;;;3.40;3.10;;;;;;;10.87;74.26;97863.77;1811876;79;25672;-78
2022/07/17 01:20:43;;;;;;;4.75;2.65;;;;;;;10.87;74.37;97869.71;1811799;79;27430;-78
2022/07/17 01:23:10;;;;;;;4.50;2.67;;;;;;;10.87;74.47;97873.22;1811639;79;25479;-77
2022/07/17 01:25:37;;;;;;;5.10;2.52;;;;;;;10.83;74.42;97867.92;1811866;79;25755;-79
2022/07/17 01:28:05;;;;;;;3.52;3.00;;;;;;;10.82;74.52;97874.36;1811946;79;25759;-80
2022/07/17 01:30:32;;;;;;;3.33;2.98;;;;;;;10.81;74.51;97874.87;1811898;79;25672;-77
2022/07/17 01:32:58;;;;;;;2.87;2.67;;;;;;;10.77;74.56;97884.39;1811818;79;27337;-80
2022/07/17 01:35:25;;;;;;;5.90;3.00;;;;;;;10.78;74.54;97877.97;1811399;79;25672;-76
2022/07/17 01:37:52;;;;;;;3.52;2.90;;;;;;;10.73;74.42;97874.22;1811856;79;25700;-77
2022/07/17 01:40:19;;;;;;;3.77;2.95;;;;;;;10.63;74.51;97876.43;1843498;77;25640;-78
2022/07/17 01:42:49;;;;;;;3.55;2.98;;;;;;;10.63;74.66;97879.12;1844981;77;25606;-79
2022/07/17 01:45:18;;;;;;;4.47;2.70;;;;;;;10.64;74.77;97876.23;1844677;77;27446;-80
2022/07/17 01:47:46;;;;;;;5.00;2.72;;;;;;;10.58;74.71;97869.47;1844982;77;25648;-77
2022/07/17 01:50:14;;;;;;;5.85;3.70;;;;;;;10.61;74.83;97871.77;1844591;77;25799;-78
2022/07/17 01:52:43;;;;;;;6.15;3.85;;;;;;;10.55;74.71;97867.16;1845076;77;25682;-77
2022/07/17 01:55:12;;;;;;;5.60;3.87;;;;;;;10.55;74.87;97873.39;1844989;77;25712;-80
2022/07/17 01:57:39;;;;;;;4.75;4.00;;;;;;;10.55;74.83;97872.55;1845127;77;27490;-77
2022/07/17 02:00:11;;;;;;;8.53;4.10;;;;;;;10.48;74.81;97877.09;1845084;77;25680;-77
2022/07/17 02:02:38;;;;;;;8.98;4.17;;;;;;;10.46;74.87;97868.68;1845297;77;25684;-79
2022/07/17 02:05:05;;;;;;;6.33;3.70;;;;;;;10.46;74.85;97874.08;1845090;77;25776;-77
2022/07/17 02:07:32;;;;;;;4.62;3.42;;;;;;;10.46;74.81;97875.43;1845385;77;25958;-78
2022/07/17 02:09:59;;;;;;;6.53;3.80;;;;;;;10.42;74.80;97874.16;1845149;77;27339;-77
2022/07/17 02:12:25;;;;;;;4.67;3.70;;;;;;;10.41;74.80;97877.88;1845117;77;25628;-77
2022/07/17 02:14:52;;;;;;;5.08;3.80;;;;;;;10.42;74.94;97880.06;1845271;77;25728;-77
2022/07/17 02:17:19;;;;;;;5.87;3.70;;;;;;;10.42;74.96;97876.02;1845256;77;26687;-78
2022/07/17 02:19:45;;;;;;;6.55;3.72;;;;;;;10.42;74.98;97879.55;1844899;77;25857;-77
2022/07/17 02:22:12;;;;;;;4.67;2.92;;;;;;;10.39;75.00;97880.45;1845040;77;27427;-77
2022/07/17 02:24:38;;;;;;;4.70;3.40;;;;;;;10.38;74.96;97882.86;1844977;77;25676;-78
2022/07/17 02:27:05;;;;;;;4.22;3.65;;;;;;;10.37;75.02;97876.63;1845153;77;25660;-78
2022/07/17 02:29:31;;;;;;;4.80;2.85;;;;;;;10.37;74.90;97877.98;1845248;77;25717;-77
2022/07/17 02:31:58;;;;;;;5.70;3.45;;;;;;;10.35;74.86;97880.04;1845305;77;25714;-77
2022/07/17 02:34:24;;;;;;;5.47;3.27;;;;;;;10.29;74.84;97879.98;1844437;76;27402;-77
2022/07/17 02:36:51;;;;;;;5.22;2.83;;;;;;;10.25;74.82;97876.86;1841485;77;25683;-77
2022/07/17 02:39:18;;;;;;;4.62;3.30;;;;;;;10.25;74.95;97878.73;1841889;77;25688;-77
2022/07/17 02:41:44;;;;;;;5.05;3.12;;;;;;;10.21;74.93;97881.49;1841731;77;25743;-77
2022/07/17 02:44:10;;;;;;;3.20;2.90;;;;;;;10.15;74.96;97883.58;1842215;77;25676;-76
2022/07/17 02:46:37;;;;;;;7.78;3.12;;;;;;;10.11;74.84;97881.81;1841765;77;27573;-78
2022/07/17 02:49:04;;;;;;;4.12;2.62;;;;;;;10.04;74.84;97887.66;1841755;77;25449;-77
2022/07/17 02:51:30;;;;;;;3.87;2.95;;;;;;;9.99;74.87;97886.92;1842081;77;25694;-78
2022/07/17 02:53:57;;;;;;;6.53;3.17;;;;;;;9.95;74.88;97884.28;1841894;77;26665;-78
2022/07/17 02:56:23;;;;;;;3.58;2.62;;;;;;;9.94;75.05;97891.22;1841641;77;25624;-78
2022/07/17 02:58:50;;;;;;;2.75;2.40;;;;;;;9.96;75.07;97886.47;1841914;77;27321;-77
2022/07/17 03:01:16;;;;;;;3.75;2.70;;;;;;;9.95;74.96;97895.58;1841762;77;25621;-77
2022/07/17 03:03:43;;;;;;;3.37;2.50;;;;;;;9.86;74.83;97890.02;1841872;77;25734;-78
2022/07/17 03:06:09;;;;;;;3.60;2.75;;;;;;;9.84;74.90;97895.61;1841957;77;25805;-76
2022/07/17 03:08:36;;;;;;;5.35;3.10;;;;;;;9.85;75.05;97900.48;1841755;77;25740;-78
2022/07/17 03:11:03;;;;;;;7.12;3.17;;;;;;;9.75;74.89;97897.61;1841886;77;28158;-77
2022/07/17 03:13:29;;;;;;;3.67;3.25;;;;;;;9.73;75.16;97896.97;1841743;77;25880;-77
2022/07/17 03:15:56;;;;;;;6.78;3.47;;;;;;;9.66;75.11;97897.41;1841736;77;25696;-77
2022/07/17 03:18:22;;;;;;;7.65;3.40;;;;;;;9.64;75.26;97901.34;1841916;77;25731;-80
2022/07/17 03:20:49;;;;;;;3.87;3.10;;;;;;;9.62;75.31;97903.40;1841848;77;25637;-78
2022/07/17 03:23:16;;;;;;;3.02;2.72;;;;;;;9.56;75.35;97904.16;1841785;77;27374;-77
2022/07/17 03:25:42;;;;;;;5.17;3.30;;;;;;;9.55;75.56;97910.05;1841988;77;25664;-77
2022/07/17 03:28:09;;;;;;;3.83;3.10;;;;;;;9.58;75.55;97912.37;1841800;77;25660;-77
2022/07/17 03:30:35;;;;;;;5.30;3.42;;;;;;;9.55;75.54;97918.14;1841825;77;26593;-79
2022/07/17 03:33:03;;;;;;;5.22;3.25;;;;;;;9.56;75.64;97914.93;1841653;77;44194;-80
2022/07/17 03:35:29;;;;;;;5.83;3.30;;;;;;;9.49;75.66;97924.31;1843148;77;27387;-77
2022/07/17 03:37:56;;;;;;;8.70;3.42;;;;;;;9.52;75.74;97926.63;1844791;77;25715;-78
2022/07/17 03:40:22;;;;;;;3.67;3.37;;;;;;;9.57;75.81;97924.69;1844859;77;25676;-78
2022/07/17 03:42:49;;;;;;;4.40;3.08;;;;;;;9.55;75.80;97926.73;1845179;77;26505;-78
2022/07/17 03:45:15;;;;;;;4.37;3.55;;;;;;;9.57;75.89;97928.22;1845042;77;25177;-77
2022/07/17 03:47:42;;;;;;;5.37;3.60;;;;;;;9.58;75.93;97927.70;1845098;77;27529;-78
2022/07/17 03:50:09;;;;;;;3.50;3.12;;;;;;;9.57;75.88;97933.61;1844985;77;25720;-77
2022/07/17 03:52:35;;;;;;;3.85;3.12;;;;;;;9.62;75.95;97926.30;1844958;77;25711;-77
2022/07/17 03:55:02;;;;;;;3.83;3.30;;;;;;;9.62;76.06;97932.53;1845160;77;26345;-80
2022/07/17 03:57:29;;;;;;;4.35;3.12;;;;;;;9.64;76.02;97927.79;1844968;77;25688;-77
2022/07/17 03:59:55;;;;;;;4.25;3.40;;;;;;;9.61;76.01;97930.86;1845192;77;27191;-78
2022/07/17 04:02:22;;;;;;;3.95;3.42;;;;;;;9.66;76.22;97931.09;1844720;77;25415;-78
2022/07/17 04:04:49;;;;;;;6.62;3.52;;;;;;;9.73;76.37;97936.06;1844980;77;26197;-77
2022/07/17 04:07:27;;;;;;;3.60;3.25;;;;;;;9.80;76.43;97937.97;1845087;77;26420;-77
2022/07/17 04:09:56;;;;;;;4.95;3.58;;;;;;;9.87;76.54;97944.27;1844780;77;25712;-77
2022/07/17 04:12:24;;;;;;;5.37;3.72;;;;;;;9.92;76.72;97939.95;1845019;77;27550;-77
2022/07/17 04:14:50;;;;;;;5.12;3.95;;;;;;;9.95;76.74;97942.78;1845079;77;25704;-78
2022/07/17 04:17:17;;;;;;;5.58;4.22;;;;;;;9.99;76.90;97947.59;1845210;77;25933;-77
2022/07/17 04:19:44;;;;;;;5.78;3.98;;;;;;;10.02;76.88;97950.43;1844995;77;25634;-78
2022/07/17 04:22:10;;;;;;;6.12;4.08;;;;;;;10.07;76.96;97947.45;1845187;77;25722;-78
2022/07/17 04:24:37;;;;;;;5.03;4.17;;;;;;;10.14;77.04;97949.39;1845093;77;27547;-78
2022/07/17 04:27:04;;;;;;;4.33;3.87;;;;;;;10.20;77.05;97958.89;1845041;77;25793;-78
2022/07/17 04:29:30;;;;;;;7.95;3.92;;;;;;;10.26;77.04;97955.95;1845088;77;25731;-77
2022/07/17 04:31:57;;;;;;;5.17;4.08;;;;;;;10.32;77.08;97957.33;1845149;77;25701;-77
2022/07/17 04:34:24;;;;;;;4.92;4.42;;;;;;;10.36;77.34;97958.62;1845153;77;25648;-81
2022/07/17 04:36:51;;;;;;;6.15;4.30;;;;;;;10.41;77.30;97956.14;1844851;77;27385;-77
2022/07/17 04:39:18;;;;;;;5.20;4.70;;;;;;;10.48;77.17;97960.77;1844916;77;25415;-77
2022/07/17 04:41:44;;;;;;;5.97;3.90;;;;;;;10.52;77.13;97954.76;1845159;77;25685;-77
2022/07/17 04:44:11;;;;;;;7.30;4.20;;;;;;;10.60;77.17;97959.19;1845227;77;25748;-77
2022/07/17 04:46:38;;;;;;;6.47;3.70;;;;;;;10.66;77.14;97961.08;1844736;77;25375;-80
2022/07/17 04:49:04;;;;;;;5.35;4.85;;;;;;;10.73;77.27;97957.41;1845144;77;27398;-79
2022/07/17 04:51:31;;;;;;;5.83;4.87;;;;;;;10.79;77.28;97960.64;1844997;77;25792;-78
2022/07/17 04:53:57;;;;;;;5.37;4.58;;;;;;;10.86;77.36;97967.97;1845084;77;25719;-81
2022/07/17 04:56:24;;;;;;;6.53;3.70;;;;;;;10.93;77.30;97970.17;1845018;77;25658;-80
2022/07/17 04:58:50;;;;;;;6.72;4.22;;;;;;;10.96;77.36;97973.84;1845183;77;25629;-80
2022/07/17 05:01:17;;;;;;;4.62;4.17;;;;;;;10.96;77.28;97964.38;1844961;77;27481;-81
2022/07/17 05:03:43;;;;;;;5.72;4.90;;;;;;;11.00;77.37;97968.33;1844739;77;25688;-79
2022/07/17 05:06:10;;;;;;;5.90;5.30;;;;;;;11.06;77.54;97967.55;1845111;77;25650;-78
2022/07/17 05:08:37;;;;;;;8.20;4.72;;;;;;;11.14;77.77;97964.66;1845015;77;25747;-78
2022/07/17 05:11:03;;;;;;;6.62;3.90;;;;;;;11.22;77.81;97978.53;1845168;77;25652;-78
2022/07/17 05:13:30;;;;;;;6.05;3.92;;;;;;;11.26;77.50;97975.72;1844949;77;28214;-77
2022/07/17 05:15:56;;;;;;;6.95;4.30;;;;;;;11.28;77.40;97976.36;1844874;77;25750;-78
2022/07/17 05:18:23;;;;;;;5.50;3.90;;;;;;;11.37;77.68;97977.33;1845111;77;25648;-77
2022/07/17 05:20:49;;;;;;;6.83;4.22;;;;;;;11.44;77.64;97976.02;1845103;77;26299;-77
2022/07/17 05:23:16;;;;;;;4.47;3.87;;;;;;;11.51;77.63;97980.40;1844991;77;25182;-78
2022/07/17 05:25:43;;;;;;;4.45;3.80;;;;;;;11.61;77.85;97978.66;1845046;77;27342;-77
2022/07/17 05:28:10;;;;;;;3.95;3.35;;;;;;;11.71;77.79;97978.28;1844575;77;25618;-77
2022/07/17 05:30:37;;;;;;;5.05;4.00;;;;;;;11.78;77.73;97981.86;1844984;77;25639;-78
2022/07/17 05:33:04;;;;;;;5.08;3.60;;;;;;;11.85;77.57;97984.05;1845001;77;25806;-77
2022/07/17 05:35:31;;;;;;;5.80;3.77;;;;;;;11.93;77.47;97991.15;1844369;77;25715;-77
2022/07/17 05:37:57;;;;;;;7.28;3.83;;;;;;;12.04;77.50;97985.12;1841646;77;27409;-77
2022/07/17 05:40:25;;;;;;;5.83;3.70;;;;;;;12.15;77.42;97986.70;1841817;77;25668;-78
2022/07/17 05:42:52;;;;;;;4.05;3.37;;;;;;;12.24;77.16;97984.61;1841913;77;25795;-78
2022/07/17 05:45:18;;;;;;;5.15;3.10;;;;;;;12.36;77.10;97987.01;1842008;77;25909;-78
2022/07/17 05:47:45;;;;;;;5.80;4.35;;;;;;;12.47;76.95;97989.09;1841954;77;25899;-78
2022/07/17 05:50:12;;;;;;;8.28;3.98;;;;;;;12.56;76.87;97989.17;1841880;77;27338;-78
2022/07/17 05:52:38;;;;;;;6.12;3.65;;;;;;;12.68;77.21;97992.08;1841931;77;25668;-78
2022/07/17 05:55:06;;;;;;;9.15;3.20;;;;;;;12.79;77.27;97993.34;1841980;77;25664;-79
2022/07/17 05:57:33;;;;;;;4.22;3.25;;;;;;;12.90;77.15;97994.88;1841952;77;25784;-78
2022/07/17 06:00:00;;;;;;;5.37;3.25;;;;;;;13.01;76.72;97994.75;1841978;77;25711;-78
2022/07/17 06:02:26;;;;;;;6.22;2.87;;;;;;;13.09;76.71;97998.56;1841842;77;28184;-78
2022/07/17 06:04:53;;;;;;;6.15;2.62;;;;;;;13.19;76.81;98001.69;1841604;77;25679;-78
2022/07/17 06:07:19;;;;;;;5.40;2.40;;;;;;;13.33;76.85;98001.96;1841807;77;25641;-78
2022/07/17 06:09:46;;;;;;;3.08;2.27;;;;;;;13.47;76.19;98005.45;1841922;77;25735;-78
2022/07/17 06:12:12;;;;;;;3.27;2.10;;;;;;;13.58;75.63;98002.59;1841953;77;25597;-78
2022/07/17 06:14:39;;;;;;;5.55;2.40;;;;;;;13.66;74.96;98005.05;1846304;77;27591;-78
2022/07/17 06:17:05;;;;;;;4.80;2.27;;;;;;;13.76;75.00;98004.08;1837886;77;25762;-78
2022/07/17 06:19:32;;;;;;;7.92;2.72;;;;;;;13.87;74.53;98011.53;1802096;79;25721;-78
2022/07/17 06:21:59;;;;;;;4.72;2.20;;;;;;;13.98;74.80;98015.42;1770194;80;25764;-77
2022/07/17 06:24:26;;;;;;;5.00;2.30;;;;;;;14.04;74.37;98015.38;1824245;78;25703;-78
2022/07/17 06:26:52;;;;;;;4.35;2.45;;;;;;;14.16;74.11;98018.22;1801974;79;27511;-78
2022/07/17 06:29:19;;;;;;;5.62;2.35;;;;;;;14.27;73.75;98012.61;1770053;81;25893;-78
2022/07/17 06:31:45;;;;;;;4.55;2.55;;;;;;;14.38;73.57;98009.17;1802067;79;25743;-77
2022/07/17 06:34:12;;;;;;;8.10;2.47;;;;;;;14.46;73.04;98013.56;1770182;80;25774;-77
2022/07/17 06:36:38;;;;;;;5.00;2.47;;;;;;;14.53;72.68;98018.39;1824102;78;25738;-77
2022/07/17 06:39:05;;;;;;;6.03;2.10;;;;;;;14.63;72.58;98016.84;1801863;79;27453;-77
2022/07/17 06:41:31;;;;;;;5.60;2.25;;;;;;;14.74;72.63;98024.79;1770224;81;25662;-77
2022/07/17 06:43:58;;;;;;;3.12;2.22;;;;;;;14.81;72.59;98029.66;1801982;79;25653;-77
2022/07/17 06:46:24;;;;;;;6.35;2.27;;;;;;;14.91;73.02;98029.14;1770337;81;25707;-77
2022/07/17 06:48:54;;;;;;;4.03;2.02;;;;;;;15.03;72.38;98030.06;1824597;78;25641;-77
2022/07/17 06:51:20;;;;;;;3.22;1.95;;;;;;;15.12;71.96;98028.71;1802010;79;27375;-77
2022/07/17 06:53:47;;;;;;;5.70;1.92;;;;;;;15.22;71.68;98031.73;1770237;80;25746;-77
2022/07/17 06:56:13;;;;;;;6.75;3.00;;;;;;;15.29;71.61;98034.40;1802006;79;25986;-77
2022/07/17 06:58:40;;;;;;;5.15;2.87;;;;;;;15.31;71.47;98034.48;1770356;80;25673;-77
2022/07/17 07:01:06;;;;;;;4.28;2.22;;;;;;;15.34;71.73;98036.73;1802034;79;26464;-77
2022/07/17 07:03:33;;;;;;;8.08;2.52;;;;;;;15.42;71.34;98039.16;1770254;80;28245;-77
2022/07/17 07:06:00;;;;;;;7.30;2.40;;;;;;;15.48;71.13;98036.05;1801504;79;25369;-77
2022/07/17 07:08:26;;;;;;;5.85;1.98;;;;;;;15.54;70.87;98034.33;1770325;80;25760;-77
2022/07/17 07:10:53;;;;;;;5.58;2.17;;;;;;;15.60;70.46;98030.70;1801987;79;25713;-77
2022/07/17 07:13:19;;;;;;;5.65;2.10;;;;;;;15.64;70.48;98031.40;1770253;80;25453;-77
2022/07/17 07:15:46;;;;;;;6.72;2.12;;;;;;;15.71;70.09;98035.37;1824371;78;28147;-77
2022/07/17 07:18:12;;;;;;;8.33;1.80;;;;;;;15.82;69.87;98038.69;1802020;79;25754;-77
2022/07/17 07:20:39;;;;;;;5.05;1.82;;;;;;;15.91;69.39;98039.23;1770380;80;25753;-77
2022/07/17 07:23:06;;;;;;;7.95;2.02;;;;;;;15.93;68.86;98043.92;1801859;79;25716;-76
2022/07/17 07:25:32;;;;;;;2.80;1.52;;;;;;;15.93;68.88;98050.20;1770405;81;25744;-76
2022/07/17 07:27:59;;;;;;;5.40;1.45;;;;;;;16.00;68.76;98044.12;1801941;79;27336;-77
2022/07/17 07:30:26;;;;;;;7.85;1.55;;;;;;;16.08;68.09;98036.98;1770184;80;25789;-77
2022/07/17 07:32:53;;;;;;;9.73;1.90;;;;;;;16.19;67.99;98033.46;1824134;78;25765;-77
2022/07/17 07:35:20;;;;;;;4.62;1.27;;;;;;;16.32;67.84;98033.80;1801907;79;25746;-77
2022/07/17 07:37:46;;;;;;;5.95;1.67;;;;;;;16.44;67.49;98040.64;1773537;80;25884;-77
2022/07/17 07:40:13;;;;;;;6.12;1.85;;;;;;;16.46;67.07;98034.43;1805906;79;28162;-77
2022/07/17 07:42:40;;;;;;;7.30;2.15;;;;;;;16.49;66.85;98035.33;1774096;80;25749;-78
2022/07/17 07:45:08;;;;;;;7.33;1.67;;;;;;;16.54;66.59;98036.27;1806054;79;25772;-77
2022/07/17 07:47:45;;;;;;;3.27;1.45;;;;;;;16.65;66.82;98034.69;1774248;80;25657;-77
2022/07/17 07:50:13;;;;;;;7.78;2.02;;;;;;;16.73;66.80;98031.61;1711750;83;25953;-77
2022/07/17 07:52:40;;;;;;;5.08;1.85;;;;;;;16.88;67.01;98033.35;1726857;81;27597;-77
2022/07/17 07:55:08;;;;;;;3.55;1.47;;;;;;;17.11;66.53;98025.70;1711456;82;26167;-77
2022/07/17 07:57:36;;;;;;;4.05;1.10;;;;;;;17.31;66.22;98021.22;1726760;83;26700;-77
2022/07/17 08:00:05;;;;;;;7.87;1.92;;;;;;;17.49;66.01;98025.19;1711900;83;25804;-78
2022/07/17 08:02:32;;;;;;;3.92;1.60;;;;;;;17.47;65.27;98032.78;1726837;83;25929;-77
2022/07/17 08:04:59;;;;;;;4.45;1.42;;;;;;;17.60;65.01;98028.42;1711664;83;27600;-77
2022/07/17 08:07:27;;;;;;;2.65;1.22;;;;;;;18.02;64.81;98024.08;1726812;83;25698;-77
2022/07/17 08:09:54;;;;;;;5.15;1.52;;;;;;;18.34;63.85;98029.89;1711958;82;26408;-77
2022/07/17 08:12:22;;;;;;;2.98;1.22;;;;;;;18.65;63.14;98028.53;1726785;83;25795;-77
2022/07/17 08:14:50;;;;;;;3.30;1.20;;;;;;;19.02;62.14;98028.86;1711779;83;25960;-77
2022/07/17 08:17:18;;;;;;;4.42;1.55;;;;;;;18.87;61.33;98018.50;1726760;83;27600;-77
2022/07/17 08:19:45;;;;;;;5.60;1.00;;;;;;;18.92;61.28;98028.17;1711698;83;25498;-76
2022/07/17 08:22:12;;;;;;;3.05;1.02;;;;;;;19.24;61.57;98028.91;1726657;83;25358;-77
2022/07/17 08:24:39;;;;;;;3.33;1.32;;;;;;;19.45;60.79;98032.21;1711765;83;26514;-77
2022/07/17 08:27:05;;;;;;;3.27;1.10;;;;;;;19.61;60.28;98038.22;1726519;83;25905;-77
2022/07/17 08:29:32;;;;;;;4.17;1.30;;;;;;;19.53;59.34;98041.41;1711724;82;28482;-77
2022/07/17 08:31:58;;;;;;;5.83;1.40;;;;;;;19.60;59.26;98035.20;1726541;83;25812;-78
2022/07/17 08:34:25;;;;;;;2.75;1.30;;;;;;;20.29;58.22;98040.11;1711736;82;25751;-77
2022/07/17 08:36:51;;;;;;;3.15;0.93;;;;;;;20.29;58.22;98040.11;1724262;83;26739;-78
2022/07/17 08:39:18;;;;;;;3.62;1.35;;;;;;;20.74;58.00;98040.59;1721223;83;25852;-78
2022/07/17 08:41:46;;;;;;;4.97;1.40;;;;;;;21.20;57.12;98041.80;1720954;83;28200;-77
2022/07/17 08:44:12;;;;;;;5.58;1.17;;;;;;;21.63;56.42;98050.84;1728053;83;25838;-78
2022/07/17 08:46:40;;;;;;;5.78;1.95;;;;;;;21.48;55.78;98052.15;1728318;81;25799;-79
2022/07/17 08:49:08;;;;;;;3.70;1.10;;;;;;;21.26;55.69;98056.92;1757768;81;25840;-78
2022/07/17 08:51:35;;;;;;;3.05;1.37;;;;;;;21.23;55.12;98049.23;1757868;81;25681;-78
2022/07/17 08:54:01;;;;;;;4.12;1.37;;;;;;;21.43;54.68;98052.11;1757842;81;28102;-79
2022/07/17 08:56:28;;;;;;;4.05;1.80;;;;;;;21.59;54.15;98048.36;1757624;81;25670;-79
2022/07/17 08:58:55;;;;;;;4.50;1.15;;;;;;;21.75;53.85;98054.20;1757779;81;25659;-78
2022/07/17 09:01:24;;;;;;;2.45;1.10;;;;;;;21.54;52.74;98053.81;1757884;81;25866;-79
2022/07/17 09:04:05;;;;;;;2.47;1.07;;;;;;;21.05;52.88;98054.01;1757818;81;25721;-78
2022/07/17 09:06:29;;;;;;;4.42;1.25;;;;;;;20.93;52.92;98047.88;1664004;86;28348;-78
2022/07/17 09:09:11;;;;;;;5.12;1.10;;;;;;;21.27;53.24;98051.72;1706910;84;25685;-78
2022/07/17 09:11:45;;;;;;;;;;;;;;;21.43;53.62;98052.11;1635285;87;25438;-79
2022/07/17 09:14:13;;;;;;;2.05;1.00;;;;;;;21.96;51.82;98051.56;1646241;87;26566;-79
2022/07/17 09:16:56;;;;;;;6.70;1.20;;;;;;;22.55;52.40;98043.78;1646210;87;25950;-79
2022/07/17 09:19:38;;;;;;;3.12;1.20;;;;;;;23.14;51.93;98048.23;1646190;87;27400;-80
2022/07/17 09:22:13;;;;;;;3.12;1.47;;;;;;;23.70;50.26;98039.32;1625209;88;25739;-80
2022/07/17 09:24:52;;;;;;;5.53;1.17;;;;;;;24.05;50.05;98048.00;1625424;88;25834;-79
2022/07/17 09:27:31;;;;;;;5.85;1.40;;;;;;;24.28;49.14;98065.02;1625532;88;25918;-80
2022/07/17 09:30:11;;;;;;;2.10;1.25;;;;;;;23.95;48.21;98064.59;1625449;88;25751;-80
2022/07/17 09:32:40;;;;;;;2.60;1.00;;;;;;;23.31;47.49;98056.17;1625456;88;27998;-80
2022/07/17 09:35:10;;;;;;;3.50;1.02;;;;;;;22.94;47.42;98063.39;1625362;87;25841;-79
2022/07/17 09:37:37;;;;;;;2.58;1.00;;;;;;;22.89;47.73;98059.24;1622530;88;25489;-79
2022/07/17 09:43:00;;;;;;;2.08;0.82;;;;;;;23.22;47.18;98060.05;1620952;87;25613;-79
2022/07/17 09:45:27;;;;;;;3.90;1.07;;;;;;;23.35;47.07;98055.36;1621181;88;27386;-79
2022/07/17 09:47:55;;;;;;;1.52;0.90;;;;;;;23.62;46.07;98054.23;1620948;88;25723;-80
2022/07/17 09:50:23;;;;;;;4.62;1.10;;;;;;;23.87;46.18;98056.91;1621220;87;25837;-79
2022/07/17 09:52:55;;;;;;;4.55;1.00;;;;;;;23.98;46.12;98054.39;1621022;88;25944;-80
2022/07/17 09:55:28;;;;;;;3.17;1.07;;;;;;;23.95;45.82;98053.56;1621290;88;25794;-81
2022/07/17 09:57:55;;;;;;;3.17;1.02;;;;;;;23.50;45.55;98064.70;1618399;88;28186;-80
2022/07/17 10:00:22;;;;;;;3.70;1.05;;;;;;;23.15;45.01;98058.70;1621006;87;25678;-80
2022/07/17 10:02:49;;;;;;;2.77;0.90;;;;;;;22.80;45.06;98067.78;1641239;84;25311;-81
2022/07/17 10:05:16;;;;;;;3.10;1.10;;;;;;;22.62;44.85;98050.66;1707216;78;25737;-79
2022/07/17 10:07:45;;;;;;;2.92;1.15;;;;;;;22.52;45.21;98049.27;1824187;78;25758;-79
2022/07/17 10:10:15;;;;;;;3.83;1.10;;;;;;;22.69;46.11;98042.70;1824179;78;27447;-78
2022/07/17 10:12:46;;;;;;;2.10;1.05;;;;;;;23.01;45.83;98050.70;1756693;80;25785;-80
2022/07/17 10:15:13;;;;;;;2.95;0.90;;;;;;;23.43;45.40;98050.37;1720912;83;25782;-78
2022/07/17 10:17:40;;;;;;;2.15;1.22;;;;;;;23.79;45.24;98043.69;1720909;83;25680;-78
2022/07/17 10:20:10;;;;;;;4.15;1.30;;;;;;;23.99;44.60;98040.05;1721174;83;25782;-79
2022/07/17 10:22:46;;;;;;;2.20;1.00;;;;;;;23.86;43.38;98044.78;1721419;83;28090;-78
2022/07/17 10:25:16;;;;;;;2.62;0.95;;;;;;;23.41;43.19;98053.44;1721097;83;25695;-78
2022/07/17 10:27:50;;;;;;;3.58;1.20;;;;;;;23.10;43.13;98058.13;1707723;84;25758;-80
2022/07/17 10:30:27;;;;;;;2.58;1.17;;;;;;;22.82;43.34;98062.83;1704465;84;25914;-82
2022/07/17 10:32:58;;;;;;;2.15;1.30;;;;;;;22.56;43.05;98059.19;1706032;84;25511;-79
2022/07/17 10:35:26;;;;;;;1.98;0.93;;;;;;;22.87;43.78;98056.77;1705248;84;27369;-78
2022/07/17 10:37:58;;;;;;;3.35;1.32;;;;;;;23.12;43.65;98068.33;1696786;84;25791;-79
2022/07/17 10:40:32;;;;;;;10.53;5.15;;;;;;;23.27;42.78;98061.44;1690096;84;25711;-79
2022/07/17 10:43:07;;;;;;;8.78;5.17;;;;;;;23.30;42.98;98056.76;1692646;84;26462;-81
2022/07/17 10:45:44;;;;;;;3.58;1.02;;;;;;;23.58;42.87;98061.40;1692507;84;25719;-80
2022/07/17 10:48:19;;;;;;;3.72;1.47;;;;;;;23.20;42.62;98056.74;1641675;87;28256;-81
2022/07/17 10:50:50;;;;;;;4.80;2.45;;;;;;;22.84;43.31;98070.23;1606003;89;25738;-77
2022/07/17 10:53:31;;;;;;;4.22;1.87;;;;;;;22.59;43.39;98066.33;1606098;89;25909;-80
2022/07/17 10:56:03;;;;;;;2.17;1.22;;;;;;;22.33;43.68;98061.89;1606424;88;25793;-79
2022/07/17 10:58:38;;;;;;;5.17;1.80;;;;;;;22.22;44.13;98063.76;1606461;89;25745;-80
2022/07/17 11:01:18;;;;;;;4.10;3.10;;;;;;;22.30;43.95;98070.67;1606108;89;28290;-81
2022/07/17 11:03:49;;;;;;;5.00;3.40;;;;;;;22.11;44.10;98066.20;1606047;89;25903;-79
2022/07/17 11:06:37;;;;;;;2.33;1.55;;;;;;;22.40;44.47;98072.08;1606496;89;25848;-80
2022/07/17 11:09:08;;;;;;;2.30;1.70;;;;;;;22.81;43.68;98062.00;1606173;89;25801;-79
2022/07/17 11:11:46;;;;;;;7.13;3.70;;;;;;;23.21;43.55;98058.40;1622049;86;25423;-78
2022/07/17 11:14:24;;;;;;;7.08;5.95;;;;;;;23.46;42.74;98060.84;1642369;86;27377;-79
2022/07/17 11:16:56;;;;;;;3.55;1.95;;;;;;;23.54;42.64;98060.33;1642120;86;25816;-81
2022/07/17 11:19:35;;;;;;;7.37;4.53;;;;;;;23.53;41.95;98058.67;1642558;87;25756;-79
2022/07/17 11:22:09;;;;;;;2.15;1.27;;;;;;;23.72;41.74;98051.45;1642230;86;25819;-79
2022/07/17 11:24:45;;;;;;;6.25;3.17;;;;;;;23.80;41.81;98052.78;1642106;87;25811;-78
2022/07/17 11:27:23;;;;;;;2.25;1.40;;;;;;;24.06;41.54;98050.20;1642178;87;27382;-78
2022/07/17 11:29:51;;;;;;;2.30;1.00;;;;;;;23.95;41.10;98057.70;1642216;87;25859;-78
2022/07/17 11:32:18;;;;;;;2.22;1.25;;;;;;;24.06;41.06;98052.97;1717668;83;25389;-79
2022/07/17 11:34:46;;;;;;;9.40;6.45;;;;;;;24.21;41.15;98054.83;1724106;83;25914;-79
2022/07/17 11:37:13;;;;;;;4.45;2.90;;;;;;;24.19;40.01;98050.15;1726025;82;25730;-78
2022/07/17 11:39:46;;;;;;;2.90;2.17;;;;;;;23.92;40.42;98048.61;1732327;82;27420;-79
2022/07/17 11:42:16;;;;;;;3.30;1.87;;;;;;;23.54;40.65;98061.70;1732633;82;25725;-79